sensor_id;sensor_type;location;lat;lon;timestamp;P1;durP1;ratioP1;P2;durP2;ratioP2
9218;SDS011;4644;48.858;9.184;2023-04-26T00:01:55;12.43;;;9.60;;
9218;SDS011;4644;48.858;9.184;2023-04-26T00:04:22;13.23;;;9.82;;
9218;SDS011;4644;48.858;9.184;2023-04-26T00:06:50;13.93;;;9.32;;
9218;SDS011;4644;48.858;9.184;2023-04-26T00:09:17;11.98;;;9.50;;
9218;SDS011;4644;48.858;9.184;2023-04-26T00:11:44;13.25;;;9.77;;
9218;SDS011;4644;48.858;9.184;2023-04-26T00:14:11;13.57;;;9.85;;
9218;SDS011;4644;48.858;9.184;2023-04-26T00:16:38;15.52;;;10.25;;
9218;SDS011;4644;48.858;9.184;2023-04-26T00:19:05;13.55;;;10.43;;
9218;SDS011;4644;48.858;9.184;2023-04-26T00:21:34;12.15;;;9.60;;
9218;SDS011;4644;48.858;9.184;2023-04-26T00:24:03;14.00;;;9.93;;
9218;SDS011;4644;48.858;9.184;2023-04-26T00:26:30;12.70;;;9.68;;
9218;SDS011;4644;48.858;9.184;2023-04-26T00:28:58;11.77;;;9.90;;
9218;SDS011;4644;48.858;9.184;2023-04-26T00:31:25;12.15;;;9.85;;
9218;SDS011;4644;48.858;9.184;2023-04-26T00:33:52;15.32;;;10.43;;
9218;SDS011;4644;48.858;9.184;2023-04-26T00:36:19;14.50;;;10.70;;
9218;SDS011;4644;48.858;9.184;2023-04-26T00:38:46;13.43;;;9.57;;
9218;SDS011;4644;48.858;9.184;2023-04-26T00:41:14;14.30;;;10.20;;
9218;SDS011;4644;48.858;9.184;2023-04-26T00:43:41;14.45;;;10.00;;
9218;SDS011;4644;48.858;9.184;2023-04-26T00:46:09;14.07;;;9.95;;
9218;SDS011;4644;48.858;9.184;2023-04-26T00:48:36;13.80;;;9.40;;
9218;SDS011;4644;48.858;9.184;2023-04-26T00:51:03;11.77;;;9.40;;
9218;SDS011;4644;48.858;9.184;2023-04-26T00:53:31;14.85;;;10.27;;
9218;SDS011;4644;48.858;9.184;2023-04-26T00:55:59;13.80;;;10.00;;
9218;SDS011;4644;48.858;9.184;2023-04-26T00:58:28;12.82;;;9.82;;
9218;SDS011;4644;48.858;9.184;2023-04-26T01:00:55;13.32;;;9.93;;
9218;SDS011;4644;48.858;9.184;2023-04-26T01:03:22;15.43;;;9.98;;
9218;SDS011;4644;48.858;9.184;2023-04-26T01:05:50;13.43;;;10.15;;
9218;SDS011;4644;48.858;9.184;2023-04-26T01:08:18;11.60;;;9.52;;
9218;SDS011;4644;48.858;9.184;2023-04-26T01:10:45;13.38;;;10.43;;
9218;SDS011;4644;48.858;9.184;2023-04-26T01:13:13;13.40;;;9.75;;
9218;SDS011;4644;48.858;9.184;2023-04-26T01:15:43;17.20;;;10.57;;
9218;SDS011;4644;48.858;9.184;2023-04-26T01:18:11;17.25;;;9.85;;
9218;SDS011;4644;48.858;9.184;2023-04-26T01:20:39;14.60;;;10.60;;
9218;SDS011;4644;48.858;9.184;2023-04-26T01:23:08;14.65;;;10.15;;
9218;SDS011;4644;48.858;9.184;2023-04-26T01:25:35;12.40;;;9.73;;
9218;SDS011;4644;48.858;9.184;2023-04-26T01:28:02;12.88;;;9.30;;
9218;SDS011;4644;48.858;9.184;2023-04-26T01:30:29;12.10;;;9.77;;
9218;SDS011;4644;48.858;9.184;2023-04-26T01:32:59;13.23;;;9.23;;
9218;SDS011;4644;48.858;9.184;2023-04-26T01:35:25;11.35;;;8.63;;
9218;SDS011;4644;48.858;9.184;2023-04-26T01:37:52;13.68;;;9.07;;
9218;SDS011;4644;48.858;9.184;2023-04-26T01:40:21;10.95;;;8.18;;
9218;SDS011;4644;48.858;9.184;2023-04-26T01:42:48;11.90;;;9.38;;
9218;SDS011;4644;48.858;9.184;2023-04-26T01:45:15;13.93;;;8.98;;
9218;SDS011;4644;48.858;9.184;2023-04-26T01:47:42;13.40;;;8.57;;
9218;SDS011;4644;48.858;9.184;2023-04-26T01:50:09;11.80;;;8.10;;
9218;SDS011;4644;48.858;9.184;2023-04-26T01:52:36;11.07;;;8.27;;
9218;SDS011;4644;48.858;9.184;2023-04-26T01:55:04;9.77;;;7.47;;
9218;SDS011;4644;48.858;9.184;2023-04-26T01:57:33;10.32;;;7.70;;
9218;SDS011;4644;48.858;9.184;2023-04-26T02:00:00;10.05;;;7.43;;
9218;SDS011;4644;48.858;9.184;2023-04-26T02:02:27;9.15;;;7.60;;
9218;SDS011;4644;48.858;9.184;2023-04-26T02:04:55;10.95;;;7.68;;
9218;SDS011;4644;48.858;9.184;2023-04-26T02:07:22;10.07;;;7.57;;
9218;SDS011;4644;48.858;9.184;2023-04-26T02:09:49;9.18;;;6.93;;
9218;SDS011;4644;48.858;9.184;2023-04-26T02:12:16;12.65;;;7.13;;
9218;SDS011;4644;48.858;9.184;2023-04-26T02:14:44;10.80;;;7.00;;
9218;SDS011;4644;48.858;9.184;2023-04-26T02:17:11;11.20;;;7.40;;
9218;SDS011;4644;48.858;9.184;2023-04-26T02:19:38;9.50;;;6.80;;
9218;SDS011;4644;48.858;9.184;2023-04-26T02:22:05;10.50;;;7.30;;
9218;SDS011;4644;48.858;9.184;2023-04-26T02:24:32;9.82;;;6.95;;
9218;SDS011;4644;48.858;9.184;2023-04-26T02:27:00;9.30;;;6.78;;
9218;SDS011;4644;48.858;9.184;2023-04-26T02:29:28;8.23;;;6.35;;
9218;SDS011;4644;48.858;9.184;2023-04-26T02:31:57;8.90;;;6.80;;
9218;SDS011;4644;48.858;9.184;2023-04-26T02:34:24;10.23;;;6.50;;
9218;SDS011;4644;48.858;9.184;2023-04-26T02:36:51;11.40;;;6.80;;
9218;SDS011;4644;48.858;9.184;2023-04-26T02:39:18;8.95;;;6.75;;
9218;SDS011;4644;48.858;9.184;2023-04-26T02:41:45;12.43;;;6.60;;
9218;SDS011;4644;48.858;9.184;2023-04-26T02:44:12;10.18;;;7.15;;
9218;SDS011;4644;48.858;9.184;2023-04-26T02:46:39;8.35;;;6.47;;
9218;SDS011;4644;48.858;9.184;2023-04-26T02:49:07;13.07;;;7.05;;
9218;SDS011;4644;48.858;9.184;2023-04-26T02:51:34;10.27;;;7.30;;
9218;SDS011;4644;48.858;9.184;2023-04-26T02:54:01;12.55;;;8.05;;
9218;SDS011;4644;48.858;9.184;2023-04-26T02:56:28;14.32;;;8.57;;
9218;SDS011;4644;48.858;9.184;2023-04-26T02:58:55;11.35;;;8.68;;
9218;SDS011;4644;48.858;9.184;2023-04-26T03:01:22;11.20;;;8.35;;
9218;SDS011;4644;48.858;9.184;2023-04-26T03:03:49;14.15;;;9.13;;
9218;SDS011;4644;48.858;9.184;2023-04-26T03:06:18;15.18;;;10.27;;
9218;SDS011;4644;48.858;9.184;2023-04-26T03:08:45;15.33;;;11.60;;
9218;SDS011;4644;48.858;9.184;2023-04-26T03:11:12;16.35;;;12.02;;
9218;SDS011;4644;48.858;9.184;2023-04-26T03:13:38;18.73;;;12.48;;
9218;SDS011;4644;48.858;9.184;2023-04-26T03:16:06;17.35;;;12.80;;
9218;SDS011;4644;48.858;9.184;2023-04-26T03:18:33;18.07;;;13.30;;
9218;SDS011;4644;48.858;9.184;2023-04-26T03:21:00;19.90;;;13.63;;
9218;SDS011;4644;48.858;9.184;2023-04-26T03:23:28;21.35;;;15.10;;
9218;SDS011;4644;48.858;9.184;2023-04-26T03:25:55;18.73;;;14.68;;
9218;SDS011;4644;48.858;9.184;2023-04-26T03:28:22;21.47;;;14.00;;
9218;SDS011;4644;48.858;9.184;2023-04-26T03:30:49;18.85;;;13.45;;
9218;SDS011;4644;48.858;9.184;2023-04-26T03:33:16;20.80;;;15.35;;
9218;SDS011;4644;48.858;9.184;2023-04-26T03:35:43;23.00;;;15.73;;
9218;SDS011;4644;48.858;9.184;2023-04-26T03:38:10;22.98;;;16.23;;
9218;SDS011;4644;48.858;9.184;2023-04-26T03:40:38;21.20;;;15.10;;
9218;SDS011;4644;48.858;9.184;2023-04-26T03:43:05;20.65;;;15.20;;
9218;SDS011;4644;48.858;9.184;2023-04-26T03:45:32;22.90;;;16.40;;
9218;SDS011;4644;48.858;9.184;2023-04-26T03:47:59;24.20;;;16.85;;
9218;SDS011;4644;48.858;9.184;2023-04-26T03:50:26;25.08;;;16.77;;
9218;SDS011;4644;48.858;9.184;2023-04-26T03:52:53;26.45;;;17.95;;
9218;SDS011;4644;48.858;9.184;2023-04-26T03:55:20;23.90;;;15.40;;
9218;SDS011;4644;48.858;9.184;2023-04-26T03:57:48;21.05;;;15.13;;
9218;SDS011;4644;48.858;9.184;2023-04-26T04:00:17;21.00;;;15.00;;
9218;SDS011;4644;48.858;9.184;2023-04-26T04:02:45;20.20;;;14.95;;
9218;SDS011;4644;48.858;9.184;2023-04-26T04:05:12;22.00;;;15.25;;
9218;SDS011;4644;48.858;9.184;2023-04-26T04:07:39;21.92;;;15.40;;
9218;SDS011;4644;48.858;9.184;2023-04-26T04:10:07;21.00;;;15.60;;
9218;SDS011;4644;48.858;9.184;2023-04-26T04:12:35;18.40;;;14.40;;
9218;SDS011;4644;48.858;9.184;2023-04-26T04:15:03;19.80;;;14.15;;
9218;SDS011;4644;48.858;9.184;2023-04-26T04:17:31;19.55;;;14.93;;
9218;SDS011;4644;48.858;9.184;2023-04-26T04:19:59;19.77;;;14.70;;
9218;SDS011;4644;48.858;9.184;2023-04-26T04:22:27;20.25;;;15.43;;
9218;SDS011;4644;48.858;9.184;2023-04-26T04:24:54;21.13;;;15.77;;
9218;SDS011;4644;48.858;9.184;2023-04-26T04:27:21;21.00;;;15.10;;
9218;SDS011;4644;48.858;9.184;2023-04-26T04:29:48;20.33;;;14.63;;
9218;SDS011;4644;48.858;9.184;2023-04-26T04:32:16;22.23;;;15.80;;
9218;SDS011;4644;48.858;9.184;2023-04-26T04:34:43;25.40;;;16.63;;
9218;SDS011;4644;48.858;9.184;2023-04-26T04:37:10;28.38;;;18.63;;
9218;SDS011;4644;48.858;9.184;2023-04-26T04:39:38;26.70;;;17.85;;
9218;SDS011;4644;48.858;9.184;2023-04-26T04:42:05;26.48;;;17.52;;
9218;SDS011;4644;48.858;9.184;2023-04-26T04:44:34;29.20;;;18.15;;
9218;SDS011;4644;48.858;9.184;2023-04-26T04:47:02;25.33;;;17.50;;
9218;SDS011;4644;48.858;9.184;2023-04-26T04:49:30;21.60;;;15.70;;
9218;SDS011;4644;48.858;9.184;2023-04-26T04:51:57;20.48;;;15.15;;
9218;SDS011;4644;48.858;9.184;2023-04-26T04:54:24;23.47;;;16.33;;
9218;SDS011;4644;48.858;9.184;2023-04-26T04:56:51;26.50;;;17.33;;
9218;SDS011;4644;48.858;9.184;2023-04-26T04:59:18;28.30;;;17.95;;
9218;SDS011;4644;48.858;9.184;2023-04-26T05:01:45;25.55;;;17.17;;
9218;SDS011;4644;48.858;9.184;2023-04-26T05:04:12;25.95;;;17.10;;
9218;SDS011;4644;48.858;9.184;2023-04-26T05:06:40;25.63;;;17.42;;
9218;SDS011;4644;48.858;9.184;2023-04-26T05:09:07;25.08;;;16.77;;
9218;SDS011;4644;48.858;9.184;2023-04-26T05:11:35;24.67;;;16.67;;
9218;SDS011;4644;48.858;9.184;2023-04-26T05:14:04;21.27;;;15.00;;
9218;SDS011;4644;48.858;9.184;2023-04-26T05:16:31;18.98;;;14.15;;
9218;SDS011;4644;48.858;9.184;2023-04-26T05:18:58;19.13;;;14.80;;
9218;SDS011;4644;48.858;9.184;2023-04-26T05:21:25;19.17;;;14.32;;
9218;SDS011;4644;48.858;9.184;2023-04-26T05:23:53;17.70;;;13.85;;
9218;SDS011;4644;48.858;9.184;2023-04-26T05:26:20;17.67;;;13.35;;
9218;SDS011;4644;48.858;9.184;2023-04-26T05:28:47;18.73;;;14.40;;
9218;SDS011;4644;48.858;9.184;2023-04-26T05:31:14;21.73;;;15.30;;
9218;SDS011;4644;48.858;9.184;2023-04-26T05:33:41;24.40;;;16.13;;
9218;SDS011;4644;48.858;9.184;2023-04-26T05:36:08;22.37;;;15.57;;
9218;SDS011;4644;48.858;9.184;2023-04-26T05:38:35;22.85;;;16.73;;
9218;SDS011;4644;48.858;9.184;2023-04-26T05:41:03;26.80;;;16.60;;
9218;SDS011;4644;48.858;9.184;2023-04-26T05:43:30;26.85;;;17.23;;
9218;SDS011;4644;48.858;9.184;2023-04-26T05:45:57;22.70;;;16.42;;
9218;SDS011;4644;48.858;9.184;2023-04-26T05:48:26;24.83;;;16.43;;
9218;SDS011;4644;48.858;9.184;2023-04-26T05:50:54;20.40;;;15.02;;
9218;SDS011;4644;48.858;9.184;2023-04-26T05:53:21;20.17;;;14.85;;
9218;SDS011;4644;48.858;9.184;2023-04-26T05:55:48;26.15;;;17.20;;
9218;SDS011;4644;48.858;9.184;2023-04-26T05:58:17;22.48;;;16.25;;
9218;SDS011;4644;48.858;9.184;2023-04-26T06:00:44;20.80;;;15.48;;
9218;SDS011;4644;48.858;9.184;2023-04-26T06:03:11;20.83;;;15.07;;
9218;SDS011;4644;48.858;9.184;2023-04-26T06:05:38;21.98;;;15.68;;
9218;SDS011;4644;48.858;9.184;2023-04-26T06:08:05;21.92;;;15.45;;
9218;SDS011;4644;48.858;9.184;2023-04-26T06:10:34;23.15;;;15.88;;
9218;SDS011;4644;48.858;9.184;2023-04-26T06:13:01;23.77;;;16.65;;
9218;SDS011;4644;48.858;9.184;2023-04-26T06:15:29;23.33;;;16.52;;
9218;SDS011;4644;48.858;9.184;2023-04-26T06:17:57;22.92;;;16.02;;
9218;SDS011;4644;48.858;9.184;2023-04-26T06:20:25;19.70;;;14.65;;
9218;SDS011;4644;48.858;9.184;2023-04-26T06:22:52;21.60;;;15.25;;
9218;SDS011;4644;48.858;9.184;2023-04-26T06:25:19;18.87;;;14.20;;
9218;SDS011;4644;48.858;9.184;2023-04-26T06:27:46;22.27;;;15.63;;
9218;SDS011;4644;48.858;9.184;2023-04-26T06:30:13;19.67;;;14.87;;
9218;SDS011;4644;48.858;9.184;2023-04-26T06:32:42;20.33;;;14.43;;
9218;SDS011;4644;48.858;9.184;2023-04-26T06:35:10;18.85;;;13.60;;
9218;SDS011;4644;48.858;9.184;2023-04-26T06:37:37;19.10;;;13.10;;
9218;SDS011;4644;48.858;9.184;2023-04-26T06:40:04;18.00;;;12.50;;
9218;SDS011;4644;48.858;9.184;2023-04-26T06:42:32;17.13;;;12.50;;
9218;SDS011;4644;48.858;9.184;2023-04-26T06:44:59;17.83;;;12.90;;
9218;SDS011;4644;48.858;9.184;2023-04-26T06:47:26;18.67;;;13.07;;
9218;SDS011;4644;48.858;9.184;2023-04-26T06:49:54;16.27;;;11.00;;
9218;SDS011;4644;48.858;9.184;2023-04-26T06:52:21;16.07;;;10.97;;
9218;SDS011;4644;48.858;9.184;2023-04-26T06:54:48;12.55;;;9.43;;
9218;SDS011;4644;48.858;9.184;2023-04-26T06:57:15;15.48;;;9.90;;
9218;SDS011;4644;48.858;9.184;2023-04-26T06:59:42;13.25;;;9.27;;
9218;SDS011;4644;48.858;9.184;2023-04-26T07:02:09;11.05;;;7.88;;
9218;SDS011;4644;48.858;9.184;2023-04-26T07:04:36;13.10;;;8.20;;
9218;SDS011;4644;48.858;9.184;2023-04-26T07:07:04;14.43;;;9.30;;
9218;SDS011;4644;48.858;9.184;2023-04-26T07:09:31;14.13;;;9.10;;
9218;SDS011;4644;48.858;9.184;2023-04-26T07:11:58;6.40;;;4.22;;
9218;SDS011;4644;48.858;9.184;2023-04-26T07:14:26;4.40;;;3.40;;
9218;SDS011;4644;48.858;9.184;2023-04-26T07:16:53;8.98;;;5.55;;
9218;SDS011;4644;48.858;9.184;2023-04-26T07:19:20;9.45;;;5.97;;
9218;SDS011;4644;48.858;9.184;2023-04-26T07:21:47;9.95;;;6.57;;
9218;SDS011;4644;48.858;9.184;2023-04-26T07:24:15;10.18;;;6.88;;
9218;SDS011;4644;48.858;9.184;2023-04-26T07:26:42;10.25;;;6.10;;
9218;SDS011;4644;48.858;9.184;2023-04-26T07:29:09;9.75;;;6.72;;
9218;SDS011;4644;48.858;9.184;2023-04-26T07:31:37;11.65;;;6.90;;
9218;SDS011;4644;48.858;9.184;2023-04-26T07:34:04;10.52;;;6.55;;
9218;SDS011;4644;48.858;9.184;2023-04-26T07:36:31;7.72;;;5.22;;
9218;SDS011;4644;48.858;9.184;2023-04-26T07:38:58;6.40;;;4.28;;
9218;SDS011;4644;48.858;9.184;2023-04-26T07:41:26;7.88;;;4.10;;
9218;SDS011;4644;48.858;9.184;2023-04-26T07:43:53;5.60;;;3.88;;
9218;SDS011;4644;48.858;9.184;2023-04-26T07:46:20;5.63;;;3.67;;
9218;SDS011;4644;48.858;9.184;2023-04-26T07:48:48;5.75;;;3.58;;
9218;SDS011;4644;48.858;9.184;2023-04-26T07:51:15;5.88;;;3.55;;
9218;SDS011;4644;48.858;9.184;2023-04-26T07:53:42;5.37;;;3.63;;
9218;SDS011;4644;48.858;9.184;2023-04-26T07:56:09;6.13;;;3.72;;
9218;SDS011;4644;48.858;9.184;2023-04-26T07:58:38;7.43;;;3.13;;
9218;SDS011;4644;48.858;9.184;2023-04-26T08:01:05;6.25;;;3.70;;
9218;SDS011;4644;48.858;9.184;2023-04-26T08:03:32;6.07;;;3.20;;
9218;SDS011;4644;48.858;9.184;2023-04-26T08:06:00;7.67;;;3.53;;
9218;SDS011;4644;48.858;9.184;2023-04-26T08:08:27;5.18;;;3.47;;
9218;SDS011;4644;48.858;9.184;2023-04-26T08:10:54;5.10;;;3.30;;
9218;SDS011;4644;48.858;9.184;2023-04-26T08:13:21;5.07;;;3.40;;
9218;SDS011;4644;48.858;9.184;2023-04-26T08:15:49;5.65;;;3.40;;
9218;SDS011;4644;48.858;9.184;2023-04-26T08:18:17;4.67;;;3.10;;
9218;SDS011;4644;48.858;9.184;2023-04-26T08:20:47;5.82;;;3.25;;
9218;SDS011;4644;48.858;9.184;2023-04-26T08:23:14;8.05;;;3.60;;
9218;SDS011;4644;48.858;9.184;2023-04-26T08:25:43;5.50;;;3.50;;
9218;SDS011;4644;48.858;9.184;2023-04-26T08:28:10;6.05;;;3.38;;
9218;SDS011;4644;48.858;9.184;2023-04-26T08:30:38;6.22;;;3.40;;
9218;SDS011;4644;48.858;9.184;2023-04-26T08:33:07;7.65;;;3.92;;
9218;SDS011;4644;48.858;9.184;2023-04-26T08:35:34;7.35;;;4.03;;
9218;SDS011;4644;48.858;9.184;2023-04-26T08:38:01;5.70;;;3.58;;
9218;SDS011;4644;48.858;9.184;2023-04-26T08:40:28;6.30;;;3.85;;
9218;SDS011;4644;48.858;9.184;2023-04-26T08:42:55;5.30;;;4.07;;
9218;SDS011;4644;48.858;9.184;2023-04-26T08:45:23;7.80;;;4.83;;
9218;SDS011;4644;48.858;9.184;2023-04-26T08:47:51;7.35;;;4.30;;
9218;SDS011;4644;48.858;9.184;2023-04-26T08:50:24;6.57;;;4.22;;
9218;SDS011;4644;48.858;9.184;2023-04-26T08:52:51;6.70;;;3.78;;
9218;SDS011;4644;48.858;9.184;2023-04-26T08:55:18;6.77;;;4.00;;
9218;SDS011;4644;48.858;9.184;2023-04-26T08:57:46;5.83;;;4.00;;
9218;SDS011;4644;48.858;9.184;2023-04-26T09:00:14;7.28;;;4.40;;
9218;SDS011;4644;48.858;9.184;2023-04-26T09:02:46;7.72;;;3.85;;
9218;SDS011;4644;48.858;9.184;2023-04-26T09:05:14;7.05;;;3.88;;
9218;SDS011;4644;48.858;9.184;2023-04-26T09:07:43;7.40;;;4.18;;
9218;SDS011;4644;48.858;9.184;2023-04-26T09:10:12;7.38;;;4.20;;
9218;SDS011;4644;48.858;9.184;2023-04-26T09:12:39;9.77;;;4.20;;
9218;SDS011;4644;48.858;9.184;2023-04-26T09:15:07;7.70;;;4.70;;
9218;SDS011;4644;48.858;9.184;2023-04-26T09:17:34;8.02;;;4.43;;
9218;SDS011;4644;48.858;9.184;2023-04-26T09:20:16;8.98;;;4.90;;
9218;SDS011;4644;48.858;9.184;2023-04-26T09:22:46;7.80;;;4.68;;
9218;SDS011;4644;48.858;9.184;2023-04-26T09:25:15;6.85;;;4.50;;
9218;SDS011;4644;48.858;9.184;2023-04-26T09:27:43;7.25;;;4.18;;
9218;SDS011;4644;48.858;9.184;2023-04-26T09:30:11;5.20;;;4.13;;
9218;SDS011;4644;48.858;9.184;2023-04-26T09:32:51;7.00;;;4.47;;
9218;SDS011;4644;48.858;9.184;2023-04-26T09:35:30;8.60;;;4.40;;
9218;SDS011;4644;48.858;9.184;2023-04-26T09:37:59;5.55;;;3.75;;
9218;SDS011;4644;48.858;9.184;2023-04-26T09:40:28;6.37;;;3.90;;
9218;SDS011;4644;48.858;9.184;2023-04-26T09:42:59;7.82;;;3.97;;
9218;SDS011;4644;48.858;9.184;2023-04-26T09:45:28;7.17;;;3.97;;
9218;SDS011;4644;48.858;9.184;2023-04-26T09:48:11;4.82;;;3.60;;
9218;SDS011;4644;48.858;9.184;2023-04-26T09:50:42;8.73;;;4.28;;
9218;SDS011;4644;48.858;9.184;2023-04-26T09:53:12;8.02;;;3.88;;
9218;SDS011;4644;48.858;9.184;2023-04-26T09:55:55;6.28;;;3.92;;
9218;SDS011;4644;48.858;9.184;2023-04-26T09:58:22;4.77;;;3.60;;
9218;SDS011;4644;48.858;9.184;2023-04-26T10:00:49;6.05;;;4.40;;
9218;SDS011;4644;48.858;9.184;2023-04-26T10:03:17;5.95;;;3.70;;
9218;SDS011;4644;48.858;9.184;2023-04-26T10:05:47;9.15;;;4.15;;
9218;SDS011;4644;48.858;9.184;2023-04-26T10:08:16;5.20;;;3.58;;
9218;SDS011;4644;48.858;9.184;2023-04-26T10:10:43;5.88;;;3.63;;
9218;SDS011;4644;48.858;9.184;2023-04-26T10:13:11;6.18;;;3.80;;
9218;SDS011;4644;48.858;9.184;2023-04-26T10:15:38;4.30;;;3.47;;
9218;SDS011;4644;48.858;9.184;2023-04-26T10:18:06;5.18;;;3.22;;
9218;SDS011;4644;48.858;9.184;2023-04-26T10:20:34;5.25;;;3.22;;
9218;SDS011;4644;48.858;9.184;2023-04-26T10:23:11;7.70;;;3.80;;
9218;SDS011;4644;48.858;9.184;2023-04-26T10:25:48;4.82;;;2.75;;
9218;SDS011;4644;48.858;9.184;2023-04-26T10:28:14;5.43;;;2.85;;
9218;SDS011;4644;48.858;9.184;2023-04-26T10:33:27;3.92;;;3.20;;
9218;SDS011;4644;48.858;9.184;2023-04-26T10:36:02;6.45;;;3.78;;
9218;SDS011;4644;48.858;9.184;2023-04-26T10:38:34;5.70;;;3.78;;
9218;SDS011;4644;48.858;9.184;2023-04-26T10:47:04;5.97;;;3.60;;
9218;SDS011;4644;48.858;9.184;2023-04-26T10:49:42;6.27;;;3.60;;
9218;SDS011;4644;48.858;9.184;2023-04-26T10:52:13;4.38;;;3.08;;
9218;SDS011;4644;48.858;9.184;2023-04-26T10:54:50;5.43;;;3.08;;
9218;SDS011;4644;48.858;9.184;2023-04-26T10:57:20;7.05;;;3.40;;
9218;SDS011;4644;48.858;9.184;2023-04-26T11:02:45;5.75;;;3.38;;
9218;SDS011;4644;48.858;9.184;2023-04-26T11:08:14;5.30;;;3.10;;
9218;SDS011;4644;48.858;9.184;2023-04-26T11:10:42;4.45;;;3.42;;
9218;SDS011;4644;48.858;9.184;2023-04-26T11:13:12;5.63;;;3.10;;
9218;SDS011;4644;48.858;9.184;2023-04-26T11:15:39;4.78;;;3.10;;
9218;SDS011;4644;48.858;9.184;2023-04-26T11:18:06;6.38;;;3.20;;
9218;SDS011;4644;48.858;9.184;2023-04-26T11:20:33;3.57;;;3.10;;
9218;SDS011;4644;48.858;9.184;2023-04-26T11:23:00;4.70;;;2.78;;
9218;SDS011;4644;48.858;9.184;2023-04-26T11:25:27;4.88;;;3.50;;
9218;SDS011;4644;48.858;9.184;2023-04-26T11:27:55;5.03;;;2.92;;
9218;SDS011;4644;48.858;9.184;2023-04-26T11:30:31;6.60;;;3.83;;
9218;SDS011;4644;48.858;9.184;2023-04-26T11:32:58;6.78;;;3.40;;
9218;SDS011;4644;48.858;9.184;2023-04-26T11:35:26;4.78;;;3.40;;
9218;SDS011;4644;48.858;9.184;2023-04-26T11:37:53;4.63;;;3.10;;
9218;SDS011;4644;48.858;9.184;2023-04-26T11:40:26;4.18;;;3.15;;
9218;SDS011;4644;48.858;9.184;2023-04-26T11:42:53;3.78;;;2.90;;
9218;SDS011;4644;48.858;9.184;2023-04-26T11:55:21;4.38;;;3.40;;
9218;SDS011;4644;48.858;9.184;2023-04-26T11:57:49;6.15;;;3.47;;
9218;SDS011;4644;48.858;9.184;2023-04-26T12:00:16;5.65;;;3.10;;
9218;SDS011;4644;48.858;9.184;2023-04-26T12:02:44;5.57;;;3.28;;
9218;SDS011;4644;48.858;9.184;2023-04-26T12:05:20;5.20;;;4.00;;
9218;SDS011;4644;48.858;9.184;2023-04-26T12:07:48;4.40;;;3.10;;
9218;SDS011;4644;48.858;9.184;2023-04-26T12:10:17;4.80;;;3.30;;
9218;SDS011;4644;48.858;9.184;2023-04-26T12:12:48;6.30;;;3.00;;
9218;SDS011;4644;48.858;9.184;2023-04-26T12:15:16;4.63;;;2.95;;
9218;SDS011;4644;48.858;9.184;2023-04-26T12:17:51;4.68;;;3.20;;
9218;SDS011;4644;48.858;9.184;2023-04-26T12:20:29;3.85;;;2.95;;
9218;SDS011;4644;48.858;9.184;2023-04-26T12:22:58;4.97;;;3.15;;
9218;SDS011;4644;48.858;9.184;2023-04-26T12:25:26;6.88;;;3.42;;
9218;SDS011;4644;48.858;9.184;2023-04-26T12:27:53;4.32;;;2.95;;
9218;SDS011;4644;48.858;9.184;2023-04-26T12:30:20;4.57;;;3.30;;
9218;SDS011;4644;48.858;9.184;2023-04-26T12:32:47;5.57;;;3.58;;
9218;SDS011;4644;48.858;9.184;2023-04-26T12:35:14;4.68;;;3.22;;
9218;SDS011;4644;48.858;9.184;2023-04-26T12:37:43;4.50;;;3.10;;
9218;SDS011;4644;48.858;9.184;2023-04-26T12:40:12;6.22;;;3.83;;
9218;SDS011;4644;48.858;9.184;2023-04-26T12:42:40;4.47;;;3.10;;
9218;SDS011;4644;48.858;9.184;2023-04-26T12:45:07;5.28;;;3.25;;
9218;SDS011;4644;48.858;9.184;2023-04-26T12:47:35;6.03;;;3.50;;
9218;SDS011;4644;48.858;9.184;2023-04-26T12:50:02;5.55;;;3.35;;
9218;SDS011;4644;48.858;9.184;2023-04-26T12:52:30;6.22;;;3.78;;
9218;SDS011;4644;48.858;9.184;2023-04-26T12:54:58;5.80;;;3.83;;
9218;SDS011;4644;48.858;9.184;2023-04-26T12:57:25;7.40;;;3.70;;
9218;SDS011;4644;48.858;9.184;2023-04-26T12:59:53;4.00;;;3.47;;
9218;SDS011;4644;48.858;9.184;2023-04-26T13:02:20;3.97;;;3.37;;
9218;SDS011;4644;48.858;9.184;2023-04-26T13:04:48;5.27;;;3.30;;
9218;SDS011;4644;48.858;9.184;2023-04-26T13:39:10;9.97;;;3.67;;
9218;SDS011;4644;48.858;9.184;2023-04-26T13:41:37;5.90;;;3.23;;
9218;SDS011;4644;48.858;9.184;2023-04-26T14:18:23;4.63;;;3.00;;
9218;SDS011;4644;48.858;9.184;2023-04-26T14:20:52;6.77;;;3.33;;
9218;SDS011;4644;48.858;9.184;2023-04-26T14:30:42;4.10;;;2.80;;
9218;SDS011;4644;48.858;9.184;2023-04-26T14:33:10;3.20;;;2.77;;
9218;SDS011;4644;48.858;9.184;2023-04-26T14:35:37;5.33;;;2.70;;
9218;SDS011;4644;48.858;9.184;2023-04-26T14:38:05;4.57;;;2.77;;
9218;SDS011;4644;48.858;9.184;2023-04-26T14:40:32;4.20;;;2.63;;
9218;SDS011;4644;48.858;9.184;2023-04-26T16:40:58;4.88;;;2.42;;
9218;SDS011;4644;48.858;9.184;2023-04-26T16:43:26;4.28;;;2.33;;
9218;SDS011;4644;48.858;9.184;2023-04-26T16:45:56;4.03;;;2.20;;
9218;SDS011;4644;48.858;9.184;2023-04-26T16:48:24;5.68;;;2.55;;
9218;SDS011;4644;48.858;9.184;2023-04-26T16:50:51;5.47;;;2.45;;
9218;SDS011;4644;48.858;9.184;2023-04-26T16:53:18;4.88;;;2.40;;
9218;SDS011;4644;48.858;9.184;2023-04-26T16:55:48;5.68;;;2.70;;
9218;SDS011;4644;48.858;9.184;2023-04-26T16:58:15;4.50;;;2.05;;
9218;SDS011;4644;48.858;9.184;2023-04-26T17:00:43;4.82;;;2.50;;
9218;SDS011;4644;48.858;9.184;2023-04-26T17:03:10;5.07;;;2.42;;
9218;SDS011;4644;48.858;9.184;2023-04-26T17:05:37;3.92;;;2.42;;
9218;SDS011;4644;48.858;9.184;2023-04-26T17:08:05;6.22;;;2.70;;
9218;SDS011;4644;48.858;9.184;2023-04-26T17:10:33;2.65;;;2.20;;
9218;SDS011;4644;48.858;9.184;2023-04-26T17:13:02;5.60;;;2.42;;
9218;SDS011;4644;48.858;9.184;2023-04-26T17:15:30;9.70;;;3.40;;
9218;SDS011;4644;48.858;9.184;2023-04-26T17:17:58;4.45;;;2.20;;
9218;SDS011;4644;48.858;9.184;2023-04-26T17:20:26;4.13;;;2.70;;
9218;SDS011;4644;48.858;9.184;2023-04-26T17:22:53;7.25;;;2.60;;
9218;SDS011;4644;48.858;9.184;2023-04-26T17:25:20;3.75;;;2.10;;
9218;SDS011;4644;48.858;9.184;2023-04-26T17:27:48;4.15;;;2.20;;
9218;SDS011;4644;48.858;9.184;2023-04-26T17:30:17;4.00;;;2.20;;
9218;SDS011;4644;48.858;9.184;2023-04-26T17:32:44;5.43;;;2.53;;
9218;SDS011;4644;48.858;9.184;2023-04-26T17:35:11;4.65;;;2.10;;
9218;SDS011;4644;48.858;9.184;2023-04-26T17:37:38;4.10;;;2.50;;
9218;SDS011;4644;48.858;9.184;2023-04-26T17:40:06;8.27;;;2.60;;
9218;SDS011;4644;48.858;9.184;2023-04-26T17:42:34;13.13;;;3.42;;
9218;SDS011;4644;48.858;9.184;2023-04-26T17:45:02;5.88;;;2.72;;
9218;SDS011;4644;48.858;9.184;2023-04-26T17:47:31;5.45;;;2.47;;
9218;SDS011;4644;48.858;9.184;2023-04-26T17:49:58;4.40;;;2.40;;
9218;SDS011;4644;48.858;9.184;2023-04-26T17:52:25;3.47;;;2.13;;
9218;SDS011;4644;48.858;9.184;2023-04-26T17:54:52;6.35;;;2.80;;
9218;SDS011;4644;48.858;9.184;2023-04-26T17:57:20;4.65;;;2.40;;
9218;SDS011;4644;48.858;9.184;2023-04-26T17:59:48;5.80;;;2.77;;
9218;SDS011;4644;48.858;9.184;2023-04-26T18:02:16;5.68;;;2.50;;
9218;SDS011;4644;48.858;9.184;2023-04-26T18:04:45;4.90;;;2.20;;
9218;SDS011;4644;48.858;9.184;2023-04-26T18:07:11;4.65;;;2.47;;
9218;SDS011;4644;48.858;9.184;2023-04-26T18:09:38;4.30;;;2.30;;
9218;SDS011;4644;48.858;9.184;2023-04-26T18:12:05;7.07;;;2.55;;
9218;SDS011;4644;48.858;9.184;2023-04-26T18:14:32;4.57;;;2.38;;
9218;SDS011;4644;48.858;9.184;2023-04-26T18:16:59;4.22;;;2.60;;
9218;SDS011;4644;48.858;9.184;2023-04-26T18:19:26;4.13;;;2.80;;
9218;SDS011;4644;48.858;9.184;2023-04-26T18:21:54;4.43;;;2.65;;
9218;SDS011;4644;48.858;9.184;2023-04-26T18:24:22;3.72;;;2.13;;
9218;SDS011;4644;48.858;9.184;2023-04-26T18:26:48;3.97;;;2.50;;
9218;SDS011;4644;48.858;9.184;2023-04-26T18:29:15;7.73;;;2.50;;
9218;SDS011;4644;48.858;9.184;2023-04-26T18:31:42;3.90;;;2.42;;
9218;SDS011;4644;48.858;9.184;2023-04-26T18:34:09;3.75;;;2.33;;
9218;SDS011;4644;48.858;9.184;2023-04-26T18:36:36;4.53;;;2.42;;
9218;SDS011;4644;48.858;9.184;2023-04-26T18:39:05;3.75;;;2.38;;
9218;SDS011;4644;48.858;9.184;2023-04-26T18:41:32;5.40;;;2.60;;
9218;SDS011;4644;48.858;9.184;2023-04-26T18:43:58;5.93;;;2.97;;
9218;SDS011;4644;48.858;9.184;2023-04-26T18:46:26;4.78;;;2.63;;